Time;durP1;ratioP1;P1;durP2;ratioP2;P2;SDS_P1;SDS_P2;PMS_P1;PMS_P2;Temp;Humidity;BMP_temperature;BMP_pressure;BME280_temperature;BME280_humidity;BME280_pressure;Samples;Min_cycle;Max_cycle;Signal;HPM_P1;HPM_P2
2023/10/10 00:01:17;;;;;;;10.57;6.78;;;;;;;12.47;100.00;98865.88;6098947;19;20010;-73
2023/10/10 00:03:19;;;;;;;11.73;7.10;;;;;;;12.45;100.00;98875.75;6099378;19;20030;-73
2023/10/10 00:05:33;;;;;;;12.60;7.10;;;;;;;12.46;100.00;98872.59;6099826;19;20078;-74
2023/10/10 00:07:34;;;;;;;10.10;7.53;;;;;;;12.45;100.00;98878.53;6100442;19;20510;-74
2023/10/10 00:09:35;;;;;;;10.88;7.15;;;;;;;12.43;100.00;98869.81;6099746;19;20006;-73
2023/10/10 00:11:42;;;;;;;13.93;8.32;;;;;;;12.44;100.00;98874.16;6099232;19;20654;-73
2023/10/10 00:13:42;;;;;;;13.85;8.38;;;;;;;12.44;100.00;98876.94;6099791;19;20015;-73
2023/10/10 00:15:50;;;;;;;14.23;7.97;;;;;;;12.45;100.00;98871.00;6099667;19;20039;-73
2023/10/10 00:17:50;;;;;;;9.60;6.68;;;;;;;12.47;100.00;98876.16;6099284;19;19999;-73
2023/10/10 00:19:52;;;;;;;11.82;7.15;;;;;;;12.50;100.00;98865.13;6098561;19;20026;-73
2023/10/10 00:21:54;;;;;;;10.60;7.23;;;;;;;12.54;100.00;98868.72;6098323;19;20287;-73
2023/10/10 00:23:55;;;;;;;11.43;8.02;;;;;;;12.55;100.00;98864.75;6100544;19;20485;-73
2023/10/10 00:25:55;;;;;;;11.90;6.80;;;;;;;12.57;100.00;98862.38;6099001;19;20537;-73
2023/10/10 00:28:00;;;;;;;13.82;6.63;;;;;;;12.61;100.00;98868.00;6099835;19;20417;-74
2023/10/10 00:30:00;;;;;;;13.35;8.02;;;;;;;12.63;100.00;98868.41;6099031;19;20391;-73
2023/10/10 00:32:16;;;;;;;12.02;8.20;;;;;;;12.64;100.00;98868.00;6098240;19;20007;-73
2023/10/10 00:34:17;;;;;;;15.10;9.63;;;;;;;12.70;100.00;98874.03;5996678;19;2005913;-73
2023/10/10 00:36:36;;;;;;;11.75;8.32;;;;;;;12.71;100.00;98872.84;6099324;19;20284;-73
2023/10/10 00:38:37;;;;;;;12.90;8.25;;;;;;;12.72;100.00;98871.66;6099424;19;20021;-73
2023/10/10 00:40:39;;;;;;;11.30;8.50;;;;;;;12.73;100.00;98872.44;6098709;19;20034;-73
2023/10/10 00:42:42;;;;;;;12.38;8.50;;;;;;;12.73;100.00;98861.34;6099266;19;20360;-73
2023/10/10 00:44:44;;;;;;;15.30;8.70;;;;;;;12.73;100.00;98853.81;6100263;19;20107;-73
2023/10/10 00:46:51;;;;;;;12.82;8.38;;;;;;;12.74;100.00;98858.19;6104916;19;20010;-73
2023/10/10 00:49:00;;;;;;;13.85;9.07;;;;;;;12.75;100.00;98861.78;6103060;19;20026;-73
2023/10/10 00:51:06;;;;;;;13.95;8.88;;;;;;;12.75;100.00;98856.22;6111854;19;20611;-73
2023/10/10 00:53:11;;;;;;;12.02;8.07;;;;;;;12.74;100.00;98854.63;6111162;19;20360;-73
2023/10/10 00:55:12;;;;;;;10.80;7.93;;;;;;;12.73;100.00;98856.59;6111461;19;20021;-73
2023/10/10 00:57:16;;;;;;;14.18;8.27;;;;;;;12.75;100.00;98859.00;6111524;19;20006;-73
2023/10/10 00:59:16;;;;;;;13.65;9.55;;;;;;;12.75;100.00;98859.00;6110745;19;20472;-73
2023/10/10 01:01:19;;;;;;;14.05;8.93;;;;;;;12.72;100.00;98843.09;6109906;19;20431;-73
2023/10/10 01:03:22;;;;;;;;;;;;;;;12.74;100.00;98849.84;6111886;19;20066;-73
2023/10/10 01:05:39;;;;;;;;;;;;;;;12.73;100.00;98853.03;6111651;19;19944;-73
2023/10/10 01:07:47;;;;;;;14.30;8.95;;;;;;;12.73;100.00;98855.78;6111181;19;20142;-73
2023/10/10 01:10:32;;;;;;;14.07;7.68;;;;;;;12.72;100.00;98862.53;6112100;19;20007;-73
2023/10/10 01:12:13;;;;;;;14.40;8.70;;;;;;;12.72;100.00;98862.53;6006650;19;2005837;-73
2023/10/10 01:14:18;;;;;;;14.68;8.27;;;;;;;12.73;100.00;98850.25;6110277;19;20011;-73
2023/10/10 01:16:23;;;;;;;13.07;7.78;;;;;;;12.72;100.00;98860.56;6111074;19;20006;-73
2023/10/10 01:18:25;;;;;;;11.75;7.85;;;;;;;12.72;100.00;98845.88;6110539;19;20006;-73
2023/10/10 01:20:34;;;;;;;12.07;8.38;;;;;;;12.73;100.00;98844.69;6111655;19;20633;-73
2023/10/10 01:22:39;;;;;;;13.10;8.25;;;;;;;12.74;100.00;98847.06;6110680;19;20010;-73
2023/10/10 01:24:40;;;;;;;12.10;7.57;;;;;;;12.72;100.00;98835.56;6111065;19;20003;-73
2023/10/10 01:26:44;;;;;;;13.45;8.15;;;;;;;12.74;100.00;98847.06;6111370;19;20011;-73
2023/10/10 01:28:46;;;;;;;12.25;8.15;;;;;;;12.74;100.00;98854.63;6111155;19;19998;-73
2023/10/10 01:32:55;;;;;;;13.13;9.18;;;;;;;12.74;100.00;98849.84;6108644;19;20324;-73
2023/10/10 01:34:55;;;;;;;17.52;9.70;;;;;;;12.74;100.00;98843.50;6109764;19;20030;-73
2023/10/10 01:37:20;;;;;;;14.82;9.57;;;;;;;12.73;100.00;98842.72;6111075;19;20006;-73
2023/10/10 01:39:34;;;;;;;13.57;8.88;;;;;;;12.72;100.00;98846.66;6110234;19;20395;-73
2023/10/10 01:41:41;;;;;;;16.48;9.50;;;;;;;12.71;100.00;98841.50;6109872;19;20021;-73
2023/10/10 01:43:46;;;;;;;14.80;10.30;;;;;;;12.74;100.00;98847.06;6109409;19;20339;-73
2023/10/10 01:46:08;;;;;;;15.52;10.02;;;;;;;12.74;100.00;98843.50;6110084;19;20039;-73
2023/10/10 01:48:08;;;;;;;15.02;10.63;;;;;;;12.76;100.00;98838.38;6109998;19;20014;-73
2023/10/10 01:50:10;;;;;;;17.57;11.40;;;;;;;12.75;100.00;98834.03;6109906;19;20018;-73
2023/10/10 01:52:17;;;;;;;19.42;11.80;;;;;;;12.77;100.00;98845.53;6108396;19;20800;-73
2023/10/10 01:54:19;;;;;;;20.42;11.77;;;;;;;12.81;100.00;98844.38;6109778;19;20018;-73
2023/10/10 01:56:19;;;;;;;17.55;9.98;;;;;;;12.76;100.00;98830.84;6109219;19;20003;-73
2023/10/10 01:58:20;;;;;;;14.90;10.40;;;;;;;12.75;100.00;98839.56;6110906;19;20027;-73
2023/10/10 02:00:26;;;;;;;14.38;9.75;;;;;;;12.69;100.00;98836.34;6108300;19;20003;-73
2023/10/10 02:02:30;;;;;;;17.20;10.95;;;;;;;12.67;100.00;98835.94;6110683;19;20018;-73
2023/10/10 02:04:34;;;;;;;19.15;12.20;;;;;;;12.67;100.00;98835.13;6110376;19;20323;-73
2023/10/10 02:06:36;;;;;;;16.27;11.43;;;;;;;12.66;100.00;98834.34;6111151;19;20026;-74
2023/10/10 02:08:38;;;;;;;19.67;12.00;;;;;;;12.63;100.00;98844.22;6110896;19;20358;-73
2023/10/10 02:10:46;;;;;;;15.10;9.77;;;;;;;12.61;100.00;98835.47;6111004;19;20011;-73
2023/10/10 02:12:46;;;;;;;21.08;13.00;;;;;;;12.61;100.00;98838.25;6110032;19;20246;-73
2023/10/10 02:14:46;;;;;;;22.52;11.93;;;;;;;12.64;100.00;98836.69;6110234;19;20017;-74
2023/10/10 02:16:49;;;;;;;16.27;10.77;;;;;;;12.62;100.00;98833.50;6110066;19;20006;-73
2023/10/10 02:18:54;;;;;;;18.60;11.95;;;;;;;12.56;100.00;98835.81;6110740;19;20011;-73
2023/10/10 02:20:55;;;;;;;17.40;11.68;;;;;;;12.54;100.00;98840.97;6108342;19;20873;-73
2023/10/10 02:23:09;;;;;;;18.13;11.85;;;;;;;12.55;100.00;98836.22;6108537;19;20027;-73
2023/10/10 02:25:54;;;;;;;17.40;11.88;;;;;;;12.52;100.00;98831.44;6110433;19;20074;-73
2023/10/10 02:27:32;;;;;;;20.60;11.57;;;;;;;12.54;100.00;98849.28;6108888;19;20514;-73
2023/10/10 02:31:33;;;;;;;20.52;11.63;;;;;;;12.50;100.00;98842.13;6108649;19;20031;-74
2023/10/10 02:33:37;;;;;;;22.38;12.43;;;;;;;12.47;100.00;98834.53;6109948;19;20010;-73
2023/10/10 02:35:54;;;;;;;18.38;11.10;;;;;;;12.47;100.00;98840.09;6110513;19;20014;-73
2023/10/10 02:37:55;;;;;;;18.92;11.35;;;;;;;12.46;100.00;98844.84;6109941;19;20455;-73
2023/10/10 02:40:07;;;;;;;19.70;12.55;;;;;;;12.47;100.00;98853.97;6109559;19;20011;-73
2023/10/10 02:42:19;;;;;;;;;;;;;;;12.45;100.00;98843.25;6108296;19;20036;-73
2023/10/10 02:46:36;;;;;;;17.00;11.23;;;;;;;12.43;100.00;98834.53;6109831;19;20002;-73
2023/10/10 02:48:42;;;;;;;20.77;11.15;;;;;;;12.43;100.00;98840.06;6109750;19;20002;-74
2023/10/10 02:50:42;;;;;;;17.55;11.75;;;;;;;12.43;100.00;98840.06;6109732;19;20087;-73
2023/10/10 02:52:45;;;;;;;19.05;11.32;;;;;;;12.43;100.00;98850.38;6107947;19;20455;-73
2023/10/10 02:54:53;;;;;;;17.13;11.02;;;;;;;12.42;100.00;98851.56;6109621;19;20382;-73
2023/10/10 02:56:58;;;;;;;22.60;12.70;;;;;;;12.45;100.00;98853.56;6109564;19;20042;-73
2023/10/10 02:59:04;;;;;;;19.95;11.82;;;;;;;12.48;100.00;98859.13;6108405;19;20220;-73
2023/10/10 03:01:10;;;;;;;23.88;12.43;;;;;;;12.52;100.00;98850.84;6109960;19;20007;-73
2023/10/10 03:03:18;;;;;;;19.80;11.55;;;;;;;12.52;100.00;98854.44;6108534;19;20511;-73
2023/10/10 03:05:20;;;;;;;21.67;12.88;;;;;;;12.51;100.00;98847.28;6109942;19;20013;-73
2023/10/10 03:07:30;;;;;;;;;;;;;;;12.54;100.00;98854.84;6105991;19;20006;-73
2023/10/10 03:10:08;;;;;;;17.67;12.00;;;;;;;12.55;100.00;98852.84;6108729;19;19918;-73
2023/10/10 03:12:06;;;;;;;18.27;11.50;;;;;;;12.57;100.00;98858.81;6107178;19;20007;-73
2023/10/10 03:14:13;;;;;;;24.30;12.75;;;;;;;12.56;100.00;98868.34;6108217;19;20021;-73
2023/10/10 03:18:27;;;;;;;19.75;12.10;;;;;;;12.52;100.00;98843.31;6109534;19;20003;-73
2023/10/10 03:22:52;;;;;;;14.98;11.68;;;;;;;12.54;100.00;98848.50;6107388;19;20015;-73
2023/10/10 03:25:45;;;;;;;22.40;13.27;;;;;;;12.59;100.00;98859.25;6107941;19;20126;-73
2023/10/10 03:29:36;;;;;;;19.63;13.02;;;;;;;12.60;100.00;98847.78;6107713;19;20549;-73
2023/10/10 03:31:42;;;;;;;16.80;11.32;;;;;;;12.60;100.00;98850.53;6106717;19;20482;-73
2023/10/10 03:33:44;;;;;;;17.60;10.98;;;;;;;12.58;100.00;98844.59;6108311;19;20006;-73
2023/10/10 03:36:07;;;;;;;;;;;;;;;12.57;100.00;98842.97;6109179;19;20002;-73
2023/10/10 03:38:27;;;;;;;19.02;11.60;;;;;;;12.50;100.00;98831.81;6107058;19;19923;-73
2023/10/10 03:41:04;;;;;;;19.90;12.00;;;;;;;12.52;100.00;98835.00;6107266;19;20014;-73
2023/10/10 05:24:59;;;;;;;19.45;13.65;;;;;;;12.50;100.00;98858.78;6104621;19;20021;-73
2023/10/10 05:27:00;;;;;;;23.45;14.02;;;;;;;12.51;100.00;98852.03;6104317;19;20364;-74
2023/10/10 05:29:00;;;;;;;20.55;13.20;;;;;;;12.51;100.00;98850.06;6105150;19;20014;-73
2023/10/10 05:31:02;;;;;;;18.73;12.43;;;;;;;12.49;100.00;98854.38;6102751;19;20024;-73
2023/10/10 05:33:04;;;;;;;25.98;16.08;;;;;;;12.51;100.00;98849.28;6102280;19;20019;-73
2023/10/10 05:35:11;;;;;;;20.90;13.50;;;;;;;12.50;100.00;98856.81;6104742;19;20090;-73
2023/10/10 05:37:11;;;;;;;24.80;13.82;;;;;;;12.47;100.00;98860.31;6104894;19;20315;-74
2023/10/10 05:39:17;;;;;;;19.80;13.55;;;;;;;12.44;100.00;98860.28;6103688;19;20028;-73
2023/10/10 05:41:19;;;;;;;24.27;13.90;;;;;;;12.42;100.00;98870.97;6102738;19;20681;-73
2023/10/10 05:43:26;;;;;;;23.35;13.40;;;;;;;12.40;100.00;98868.56;6103425;19;20474;-73
2023/10/10 05:45:26;;;;;;;22.80;14.85;;;;;;;12.38;100.00;98873.72;6103286;19;20718;-73
2023/10/10 05:47:26;;;;;;;23.98;15.13;;;;;;;12.41;100.00;98872.13;6101230;19;20013;-73
2023/10/10 05:49:27;;;;;;;19.52;13.48;;;;;;;12.41;100.00;98869.38;6104675;19;20056;-73
2023/10/10 05:51:29;;;;;;;19.42;12.98;;;;;;;12.44;100.00;98868.63;6108005;19;20003;-73
2023/10/10 05:53:33;;;;;;;25.25;15.18;;;;;;;12.45;100.00;98881.31;6109821;19;20066;-74
2023/10/10 05:55:34;;;;;;;21.30;14.10;;;;;;;12.46;100.00;98874.59;6109306;19;20459;-73
2023/10/10 05:57:36;;;;;;;18.70;12.90;;;;;;;12.49;100.00;98868.25;6109512;19;20029;-73
2023/10/10 05:59:37;;;;;;;26.00;15.25;;;;;;;12.47;100.00;98865.88;6109643;19;20022;-73
2023/10/10 06:01:38;;;;;;;23.10;14.52;;;;;;;12.50;100.00;98862.34;6108442;19;20011;-73
2023/10/10 06:03:44;;;;;;;21.85;14.90;;;;;;;12.53;100.00;98864.34;6108570;19;20021;-73
2023/10/10 06:05:44;;;;;;;21.45;14.48;;;;;;;12.56;100.00;98871.91;6109033;19;20502;-73
2023/10/10 06:07:44;;;;;;;19.45;14.15;;;;;;;12.54;100.00;98857.63;6109869;19;20007;-73
2023/10/10 06:09:47;;;;;;;18.58;12.93;;;;;;;12.59;100.00;98873.94;6108928;19;20002;-74
2023/10/10 06:11:49;;;;;;;27.10;15.00;;;;;;;12.64;100.00;98873.56;6108012;19;20347;-74
2023/10/10 06:13:50;;;;;;;25.83;14.83;;;;;;;12.67;100.00;98872.03;6111019;19;20028;-73
2023/10/10 06:15:50;;;;;;;18.98;13.27;;;;;;;12.67;100.00;98872.03;6109601;19;20256;-73
2023/10/10 06:17:57;;;;;;;20.13;15.55;;;;;;;12.73;100.00;98873.25;6109997;19;20036;-73
2023/10/10 06:19:57;;;;;;;29.80;16.83;;;;;;;12.74;100.00;98877.63;6109391;19;20006;-74
2023/10/10 06:22:02;;;;;;;31.55;20.30;;;;;;;12.77;100.00;98884.41;6106143;19;20019;-73
2023/10/10 06:24:03;;;;;;;45.72;27.40;;;;;;;12.78;100.00;98880.44;6109032;19;20510;-74
2023/10/10 06:26:04;;;;;;;37.10;23.25;;;;;;;12.80;100.00;98880.84;6109833;19;19995;-74
2023/10/10 06:28:25;;;;;;;35.97;22.85;;;;;;;12.81;100.00;98888.00;6109061;19;20031;-73
2023/10/10 06:30:26;;;;;;;51.00;32.00;;;;;;;12.92;100.00;98886.94;6109115;19;20006;-73
2023/10/10 06:32:30;;;;;;;53.20;32.28;;;;;;;12.95;100.00;98888.13;6107795;19;20022;-73
2023/10/10 06:34:36;;;;;;;46.63;27.63;;;;;;;12.97;100.00;98890.53;6109443;19;20007;-73
2023/10/10 06:36:37;;;;;;;35.30;21.63;;;;;;;12.97;100.00;98884.97;6108685;19;20313;-73
2023/10/10 06:38:41;;;;;;;28.48;18.38;;;;;;;13.01;100.00;98894.13;6109507;19;20344;-73
2023/10/10 06:40:53;;;;;;;28.45;17.77;;;;;;;13.03;100.00;98892.56;6109377;19;20003;-73
2023/10/10 06:42:56;;;;;;;25.20;18.08;;;;;;;13.05;100.00;98895.75;6105959;19;20007;-73
2023/10/10 06:45:07;;;;;;;29.45;18.65;;;;;;;13.07;100.00;98896.16;6110039;19;20498;-73
2023/10/10 06:47:10;;;;;;;28.10;18.15;;;;;;;13.07;100.00;98895.34;6109395;19;20022;-73
2023/10/10 06:49:12;;;;;;;24.85;15.88;;;;;;;13.10;100.00;98906.50;6110148;19;20094;-73
2023/10/10 06:51:12;;;;;;;29.90;17.77;;;;;;;13.13;100.00;98908.50;6107029;19;20006;-73
2023/10/10 06:53:34;;;;;;;26.17;15.88;;;;;;;13.16;100.00;98898.63;6109959;19;20006;-73
2023/10/10 06:55:36;;;;;;;31.17;16.35;;;;;;;13.18;100.00;98901.81;6109069;19;20414;-73
2023/10/10 06:57:41;;;;;;;27.42;16.83;;;;;;;13.19;100.00;98906.19;6108956;19;20002;-73
2023/10/10 06:59:42;;;;;;;23.55;14.80;;;;;;;13.21;100.00;98901.06;6108487;19;20010;-73
2023/10/10 07:01:45;;;;;;;23.08;14.18;;;;;;;13.23;100.00;98909.81;6108285;19;20262;-73
2023/10/10 07:03:54;;;;;;;25.60;15.88;;;;;;;13.25;100.00;98901.09;6109556;19;20010;-73
2023/10/10 07:05:54;;;;;;;24.42;15.20;;;;;;;13.29;100.00;98913.03;6109101;19;20010;-73
2023/10/10 07:08:12;;;;;;;22.10;15.25;;;;;;;13.32;100.00;98898.34;6108736;19;20756;-73
2023/10/10 07:10:25;;;;;;;22.60;15.93;;;;;;;13.40;100.00;98903.56;6004991;19;2005974;-73
2023/10/10 07:12:28;;;;;;;27.85;15.65;;;;;;;13.44;100.00;98903.63;6108158;19;20452;-73
2023/10/10 07:14:29;;;;;;;29.85;20.25;;;;;;;13.52;100.00;98908.03;6108651;19;20010;-73
2023/10/10 07:16:32;;;;;;;28.08;21.83;;;;;;;13.61;100.00;98908.50;6109426;19;20023;-73
2023/10/10 07:18:32;;;;;;;33.00;24.50;;;;;;;13.70;100.00;98913.72;6108368;19;20007;-73
2023/10/10 07:22:54;;;;;;;27.00;19.42;;;;;;;13.78;100.00;98918.91;6108796;19;20013;-73
2023/10/10 07:25:06;;;;;;;24.83;17.55;;;;;;;13.81;100.00;98920.13;6109269;19;20010;-73
2023/10/10 07:27:11;;;;;;;;;;;;;;;13.82;100.00;98924.53;6109971;19;20058;-73
2023/10/10 07:29:27;;;;;;;22.05;15.45;;;;;;;13.84;100.00;98921.34;6109134;19;19911;-73
2023/10/10 07:31:34;;;;;;;24.65;15.88;;;;;;;13.86;100.00;98916.19;6106924;19;20031;-73
2023/10/10 07:33:40;;;;;;;26.58;14.98;;;;;;;13.87;100.00;98920.56;6108552;19;20007;-73
2023/10/10 07:35:43;;;;;;;20.23;14.43;;;;;;;13.94;100.00;98923.38;6107334;19;20026;-73
2023/10/10 07:37:45;;;;;;;20.65;14.98;;;;;;;13.97;100.00;98917.81;6107936;19;20006;-73
2023/10/10 07:41:58;;;;;;;23.15;14.13;;;;;;;14.10;100.00;98921.06;6107037;19;20502;-73
2023/10/10 07:43:59;;;;;;;19.52;13.25;;;;;;;14.18;100.00;98930.25;6108801;19;20017;-73
2023/10/10 07:46:12;;;;;;;24.98;17.00;;;;;;;14.26;100.00;98923.53;6107860;19;20347;-73
2023/10/10 07:50:18;;;;;;;21.17;15.52;;;;;;;14.37;100.00;98916.00;6107142;19;20003;-74
2023/10/10 07:52:20;;;;;;;22.17;15.15;;;;;;;14.40;100.00;98911.63;6106241;19;20011;-73
2023/10/10 07:54:38;;;;;;;18.92;13.98;;;;;;;14.42;100.00;98910.06;6106295;19;20470;-73
2023/10/10 07:56:45;;;;;;;21.50;15.68;;;;;;;14.50;100.00;98908.91;6108395;19;20082;-73
2023/10/10 07:58:49;;;;;;;23.05;16.00;;;;;;;14.53;100.00;98910.13;6108548;19;20042;-73
2023/10/10 08:00:52;;;;;;;27.20;17.05;;;;;;;14.56;100.00;98910.13;6107900;19;20002;-73
2023/10/10 08:02:53;;;;;;;22.48;15.73;;;;;;;14.60;100.00;98904.56;6106686;19;20073;-73
2023/10/10 08:04:55;;;;;;;24.27;15.50;;;;;;;14.63;100.00;98912.13;6107966;19;20010;-74
2023/10/10 08:06:57;;;;;;;23.23;15.05;;;;;;;14.66;100.00;98918.91;6108401;19;20048;-73
2023/10/10 08:11:27;;;;;;;20.85;14.35;;;;;;;14.74;100.00;98923.31;6105869;19;20107;-73
2023/10/10 08:13:28;;;;;;;24.52;15.10;;;;;;;14.80;100.00;98913.34;6107721;19;20052;-73
2023/10/10 08:15:30;;;;;;;31.42;17.90;;;;;;;14.96;100.00;98922.13;6107461;19;20003;-73
2023/10/10 08:17:35;;;;;;;29.77;18.13;;;;;;;15.06;100.00;98913.00;6107374;19;20027;-73
2023/10/10 08:19:35;;;;;;;24.25;15.27;;;;;;;15.13;100.00;98914.97;6106301;19;20014;-73
2023/10/10 08:21:48;;;;;;;23.10;15.45;;;;;;;15.18;100.00;98911.78;6106190;19;20007;-73
2023/10/10 08:23:56;;;;;;;24.02;14.27;;;;;;;15.24;100.00;98913.00;6107515;19;20102;-73
2023/10/10 08:25:57;;;;;;;19.00;13.32;;;;;;;15.27;100.00;98901.03;6106536;19;20036;-73
2023/10/10 08:27:58;;;;;;;24.65;14.93;;;;;;;15.34;100.00;98901.03;6107225;19;20015;-73
2023/10/10 08:29:59;;;;;;;22.63;13.97;;;;;;;15.37;100.00;98905.78;6106312;19;20478;-73
2023/10/10 08:31:59;;;;;;;23.55;14.50;;;;;;;15.48;100.00;98908.59;6105725;19;20278;-73
2023/10/10 08:33:59;;;;;;;20.70;14.52;;;;;;;15.50;100.00;98905.41;6107112;19;20007;-73
2023/10/10 08:36:00;;;;;;;20.23;13.35;;;;;;;15.46;100.00;98906.19;6106717;19;20014;-73
2023/10/10 08:38:00;;;;;;;21.48;13.95;;;;;;;15.51;100.00;98899.41;6105095;19;20010;-73
2023/10/10 08:40:15;;;;;;;22.17;15.15;;;;;;;15.52;100.00;98900.22;6107113;19;20103;-73
2023/10/10 08:42:17;;;;;;;21.08;13.15;;;;;;;15.56;100.00;98899.03;6002680;19;2006572;-73
2023/10/10 08:44:18;;;;;;;21.92;14.18;;;;;;;15.59;100.00;98903.00;6106824;19;20007;-73
2023/10/10 08:46:26;;;;;;;21.33;13.55;;;;;;;15.60;100.00;98907.38;6107484;19;20003;-73
2023/10/10 08:48:28;;;;;;;17.58;12.68;;;;;;;15.60;100.00;98899.78;6104936;19;20031;-73
2023/10/10 08:50:33;;;;;;;20.30;12.88;;;;;;;15.64;100.00;98906.22;6100048;19;20458;-74
2023/10/10 08:52:35;;;;;;;17.77;11.65;;;;;;;15.63;100.00;98893.44;6104835;19;20458;-73
2023/10/10 08:54:36;;;;;;;17.43;11.90;;;;;;;15.68;100.00;98898.63;6106045;19;20014;-73
2023/10/10 08:56:40;;;;;;;19.38;11.25;;;;;;;15.72;100.00;98890.22;6105321;19;20241;-73
2023/10/10 08:58:42;;;;;;;19.02;12.18;;;;;;;15.81;100.00;98901.00;6106369;19;20478;-73
2023/10/10 09:00:42;;;;;;;16.40;11.88;;;;;;;15.83;100.00;98898.59;6105645;19;20066;-73
2023/10/10 09:02:43;;;;;;;16.52;11.23;;;;;;;15.85;100.00;98898.97;6103796;19;20637;-73
2023/10/10 09:04:44;;;;;;;14.23;10.63;;;;;;;15.85;100.00;98899.75;6106300;19;20027;-73
2023/10/10 09:09:00;;;;;;;;;;;;;;;15.97;100.00;98904.94;6113355;19;20010;-73
2023/10/10 09:11:00;;;;;;;;;;;;;;;16.01;100.00;98902.91;6113026;19;20587;-73
2023/10/10 09:13:04;;;;;;;16.00;9.65;;;;;;;16.07;100.00;98891.31;6111208;19;19919;-73
2023/10/10 09:15:16;;;;;;;16.63;10.90;;;;;;;16.14;100.00;98892.09;6111804;19;20011;-73
2023/10/10 09:17:28;;;;;;;17.30;9.80;;;;;;;16.25;100.00;98897.63;6111802;19;20474;-74
2023/10/10 09:19:28;;;;;;;18.27;10.77;;;;;;;16.46;100.00;98891.91;6112798;19;20010;-73
2023/10/10 09:21:30;;;;;;;20.48;11.88;;;;;;;16.60;100.00;98891.03;6110043;19;20608;-73
2023/10/10 09:23:35;;;;;;;12.35;9.00;;;;;;;16.73;100.00;98885.81;6111483;19;20011;-73
2023/10/10 09:25:48;;;;;;;11.15;8.07;;;;;;;16.79;100.00;98892.53;6112176;19;20010;-73
2023/10/10 09:28:08;;;;;;;12.75;8.85;;;;;;;16.87;100.00;98894.09;6111155;19;20010;-74
2023/10/10 09:30:10;;;;;;;12.65;8.18;;;;;;;16.89;100.00;98883.31;6109913;19;20402;-73
2023/10/10 09:32:14;;;;;;;13.82;8.07;;;;;;;16.96;100.00;98896.41;6109136;19;20633;-73
2023/10/10 09:34:22;;;;;;;15.10;8.23;;;;;;;17.00;100.00;98886.81;6111809;19;20007;-73
2023/10/10 09:36:27;;;;;;;12.93;7.57;;;;;;;17.06;100.00;98892.75;6111567;19;20033;-73
2023/10/10 09:38:36;;;;;;;10.05;7.78;;;;;;;17.10;100.00;98899.91;6112013;19;20003;-73
2023/10/10 09:40:39;;;;;;;11.57;7.15;;;;;;;17.12;100.00;98897.47;6110331;19;20343;-73
2023/10/10 09:43:03;;;;;;;10.23;7.75;;;;;;;17.29;100.00;98904.13;6110543;19;20011;-73
2023/10/10 09:49:17;;;;;;;9.55;7.75;;;;;;;17.66;100.00;98886.59;6107757;19;20015;-73
2023/10/10 09:53:39;;;;;;;10.20;6.78;;;;;;;17.68;100.00;98878.59;6104034;19;20471;-73
2023/10/10 09:55:42;;;;;;;11.18;6.53;;;;;;;17.74;100.00;98878.97;6103440;19;20007;-73
2023/10/10 10:00:15;;;;;;;9.52;6.43;;;;;;;17.75;100.00;98877.75;6101767;19;20021;-74
2023/10/10 10:02:35;;;;;;;11.40;7.32;;;;;;;17.83;100.00;98876.47;6103032;19;20034;-73
2023/10/10 10:04:41;;;;;;;11.38;7.22;;;;;;;17.89;100.00;98871.22;6103766;19;20380;-73
2023/10/10 10:07:12;;;;;;;10.55;6.57;;;;;;;17.84;100.00;98872.44;6103038;19;20046;-73
2023/10/10 10:09:37;;;;;;;12.10;6.80;;;;;;;17.78;100.00;98873.31;6103423;19;20003;-73
2023/10/10 10:12:04;;;;;;;11.23;6.30;;;;;;;17.74;100.00;98873.38;6102626;19;20431;-74
2023/10/10 10:14:18;;;;;;;11.98;6.38;;;;;;;17.74;100.00;98873.38;6102591;19;20379;-74
2023/10/10 10:16:32;;;;;;;12.48;7.30;;;;;;;17.76;100.00;98872.94;6103627;19;20031;-73
2023/10/10 10:18:44;;;;;;;13.05;7.43;;;;;;;17.77;100.00;98883.72;6103081;19;20070;-73
2023/10/10 10:20:48;;;;;;;12.98;7.88;;;;;;;17.77;100.00;98874.53;6103198;19;20518;-73
2023/10/10 10:22:59;;;;;;;13.18;7.35;;;;;;;17.81;100.00;98884.47;6102425;19;20007;-74
2023/10/10 10:25:28;;;;;;;12.20;7.68;;;;;;;17.86;100.00;98880.41;6104120;19;20006;-73
2023/10/10 10:27:42;;;;;;;12.77;7.03;;;;;;;17.88;100.00;98880.81;6103504;19;20066;-73
2023/10/10 10:29:53;;;;;;;11.90;6.93;;;;;;;17.93;100.00;98875.53;6101447;19;20011;-73
2023/10/10 10:31:59;;;;;;;8.88;6.13;;;;;;;17.96;100.00;98871.91;6101292;19;20218;-74
2023/10/10 10:34:23;;;;;;;12.73;6.55;;;;;;;18.05;100.00;98876.22;6102095;19;20557;-73
2023/10/10 10:36:27;;;;;;;8.90;5.85;;;;;;;18.11;100.00;98872.50;5999924;19;2006406;-74
2023/10/10 10:38:27;;;;;;;11.20;6.32;;;;;;;18.17;100.00;98864.44;6102761;19;20045;-74
2023/10/10 10:40:44;;;;;;;15.63;6.78;;;;;;;18.16;100.00;98860.84;6102936;19;20078;-74
2023/10/10 10:42:52;;;;;;;10.07;6.20;;;;;;;18.25;100.00;98868.75;6101832;19;20027;-74
2023/10/10 10:44:58;;;;;;;9.55;5.57;;;;;;;18.29;100.00;98863.09;6102097;19;20018;-73
2023/10/10 10:47:03;;;;;;;7.38;4.93;;;;;;;18.47;100.00;98858.84;6103044;19;20482;-74
2023/10/10 10:49:07;;;;;;;9.95;5.22;;;;;;;18.82;100.00;98867.97;6102798;19;20009;-73
2023/10/10 10:51:23;;;;;;;10.27;5.45;;;;;;;18.93;100.00;98862.97;6109036;19;20036;-74
2023/10/10 10:53:34;;;;;;;8.15;4.45;;;;;;;19.14;100.00;98852.63;6109274;19;20058;-73
2023/10/10 10:55:41;;;;;;;7.10;4.18;;;;;;;19.24;100.00;98841.22;6110095;19;20007;-73
2023/10/10 10:57:43;;;;;;;7.55;5.00;;;;;;;19.27;100.00;98840.38;6109073;19;20358;-73
2023/10/10 10:59:55;;;;;;;8.45;4.28;;;;;;;19.27;100.00;98842.38;6108447;19;20013;-74
2023/10/10 11:01:56;;;;;;;11.48;5.00;;;;;;;19.38;100.00;98848.59;6108547;19;20021;-73
2023/10/10 11:03:57;;;;;;;6.28;3.85;;;;;;;19.56;100.00;98834.25;6108596;19;20044;-73
2023/10/10 11:05:57;;;;;;;9.88;4.30;;;;;;;19.59;100.00;98836.22;6109100;19;20456;-74
2023/10/10 11:08:10;;;;;;;8.98;4.22;;;;;;;19.57;100.00;98833.84;6109337;19;20361;-74
2023/10/10 11:10:11;;;;;;;7.85;3.88;;;;;;;19.64;100.00;98841.34;6108688;19;20022;-74
2023/10/10 11:12:12;;;;;;;14.45;4.85;;;;;;;19.67;100.00;98832.03;6107957;19;20002;-74
2023/10/10 11:16:13;;;;;;;7.50;3.83;;;;;;;19.71;100.00;98818.75;6108979;19;19999;-74
2023/10/10 11:18:14;;;;;;;7.95;4.40;;;;;;;19.70;100.00;98819.19;6107835;19;20067;-74
2023/10/10 11:20:27;;;;;;;9.73;4.10;;;;;;;19.76;100.00;98814.63;6107852;19;20367;-74
2023/10/10 11:22:40;;;;;;;9.70;4.38;;;;;;;19.82;100.00;98819.31;6107837;19;20003;-74
2023/10/10 11:24:46;;;;;;;10.73;3.55;;;;;;;19.96;100.00;98826.66;6109360;19;20002;-74
2023/10/10 11:26:47;;;;;;;8.25;3.53;;;;;;;19.96;100.00;98820.25;6109010;19;20003;-74
2023/10/10 11:28:47;;;;;;;8.75;4.60;;;;;;;19.93;100.00;98822.69;6106067;19;20070;-74
2023/10/10 11:30:49;;;;;;;9.80;4.47;;;;;;;19.88;100.00;98814.78;6108086;19;20002;-74
2023/10/10 11:33:00;;;;;;;7.82;4.10;;;;;;;19.84;100.00;98816.06;6107272;19;20011;-74
2023/10/10 11:37:23;;;;;;;9.25;3.97;;;;;;;19.99;100.00;98802.53;6108026;19;20487;-74
2023/10/10 11:39:31;;;;;;;10.85;4.07;;;;;;;20.00;100.00;98801.31;6108310;19;20391;-74
2023/10/10 11:41:35;;;;;;;7.97;4.78;;;;;;;20.02;100.00;98798.84;6106824;19;19994;-74
2023/10/10 11:43:56;;;;;;;8.95;3.28;;;;;;;20.02;100.00;98794.00;6107741;19;20062;-74
2023/10/10 11:45:58;;;;;;;9.82;4.25;;;;;;;20.06;100.00;98789.13;6108302;19;20453;-74
2023/10/10 11:48:05;;;;;;;9.23;4.10;;;;;;;20.18;100.00;98791.25;6108564;19;20456;-74
2023/10/10 11:50:05;;;;;;;6.65;3.53;;;;;;;20.51;100.00;98780.09;6106241;19;20017;-74
2023/10/10 11:52:17;;;;;;;5.65;3.40;;;;;;;20.70;100.00;98779.25;6106689;19;20368;-74
2023/10/10 11:54:25;;;;;;;14.98;4.57;;;;;;;20.80;100.00;98768.19;6107748;19;20466;-74
2023/10/10 11:56:26;;;;;;;11.40;3.92;;;;;;;20.82;100.00;98771.31;6107749;19;20003;-74